createdAt,value
2018-09-12T00:00:39.764Z,101510.87
2018-09-12T00:03:08.590Z,101503.14
2018-09-12T00:05:37.440Z,101508.10
2018-09-12T00:08:06.273Z,101506.03
2018-09-12T00:10:35.094Z,101499.48
2018-09-12T00:13:03.925Z,101502.44
2018-09-12T00:15:32.786Z,101499.25
2018-09-12T00:18:01.601Z,101497.38
2018-09-12T00:20:30.463Z,101500.36
2018-09-12T00:22:59.278Z,101502.86
2018-09-12T00:25:28.113Z,101493.30
2018-09-12T00:27:56.941Z,101501.04
2018-09-12T00:30:25.810Z,101497.77
2018-09-12T00:32:54.627Z,101497.69
2018-09-12T00:35:23.470Z,101499.66
2018-09-12T00:37:52.277Z,101488.67
2018-09-12T00:40:21.110Z,101498.36
2018-09-12T00:42:49.962Z,101506.52
2018-09-12T00:45:18.776Z,101494.79
2018-09-12T00:47:47.615Z,101495.30
2018-09-12T00:50:16.518Z,101483.84
2018-09-12T00:52:45.383Z,101486.75
2018-09-12T00:55:14.205Z,101489.00
2018-09-12T00:57:43.081Z,101496.50
2018-09-12T01:00:11.931Z,101489.17
2018-09-12T01:02:40.772Z,101492.61
2018-09-12T01:05:09.811Z,101497.89
2018-09-12T01:07:38.687Z,101488.52
2018-09-12T01:10:07.497Z,101486.97
2018-09-12T01:12:36.487Z,101485.59
2018-09-12T01:15:05.328Z,101486.27
2018-09-12T01:17:34.180Z,101486.62
2018-09-12T01:20:03.016Z,101485.41
2018-09-12T01:22:31.846Z,101487.03
2018-09-12T01:25:00.660Z,101487.53
2018-09-12T01:27:29.582Z,101474.98
2018-09-12T01:29:58.389Z,101475.52
2018-09-12T01:32:27.234Z,101476.11
2018-09-12T01:34:56.076Z,101464.93
2018-09-12T01:37:24.945Z,101471.55
2018-09-12T01:39:53.802Z,101465.98
2018-09-12T01:42:22.622Z,101459.80
2018-09-12T01:44:51.482Z,101457.21
2018-09-12T01:47:20.306Z,101454.63
2018-09-12T01:49:49.133Z,101445.70
2018-09-12T01:52:17.959Z,101448.51
2018-09-12T01:54:46.797Z,101443.03
2018-09-12T01:57:15.614Z,101445.86
2018-09-12T01:59:44.449Z,101445.36
2018-09-12T02:02:13.266Z,101439.77
2018-09-12T02:04:42.120Z,101434.45
2018-09-12T02:07:10.953Z,101436.05
2018-09-12T02:09:39.788Z,101428.77
2018-09-12T02:12:08.636Z,101425.75
2018-09-12T02:14:37.474Z,101423.23
2018-09-12T02:17:06.291Z,101427.97
2018-09-12T02:19:35.140Z,101424.65
2018-09-12T02:22:03.989Z,101416.92
2018-09-12T02:24:32.846Z,101418.97
2018-09-12T02:27:01.688Z,101413.98
2018-09-12T02:29:30.526Z,101407.97
2018-09-12T02:31:59.369Z,101415.61
2018-09-12T02:34:28.210Z,101415.31
2018-09-12T02:36:57.060Z,101411.12
2018-09-12T02:39:25.894Z,101414.05
2018-09-12T02:41:54.735Z,101415.97
2018-09-12T02:44:23.577Z,101407.38
2018-09-12T02:46:52.426Z,101410.19
2018-09-12T02:49:21.255Z,101414.83
2018-09-12T02:51:50.114Z,101405.55
2018-09-12T02:54:18.943Z,101408.65
2018-09-12T02:56:47.797Z,101410.17
2018-09-12T02:59:16.622Z,101408.90
2018-09-12T03:01:45.490Z,101413.88
2018-09-12T03:04:14.341Z,101400.72
2018-09-12T03:06:43.182Z,101403.31
2018-09-12T03:09:12.008Z,101402.56
2018-09-12T03:11:40.858Z,101399.53
2018-09-12T03:14:09.723Z,101397.31
2018-09-12T03:16:38.548Z,101396.63
2018-09-12T03:19:07.415Z,101386.05
2018-09-12T03:21:36.254Z,101388.66
2018-09-12T03:24:05.314Z,101386.14
2018-09-12T03:26:34.164Z,101387.00
2018-09-12T03:29:02.998Z,101393.06
2018-09-12T03:31:31.818Z,101387.57
2018-09-12T03:34:00.665Z,101382.59
2018-09-12T03:36:29.491Z,101383.17
2018-09-12T03:38:58.369Z,101390.63
2018-09-12T03:41:27.179Z,101388.16
2018-09-12T03:43:56.048Z,101392.32
2018-09-12T03:46:24.885Z,101397.19
2018-09-12T03:48:53.729Z,101397.03
2018-09-12T03:51:22.549Z,101406.94
2018-09-12T03:53:51.397Z,101404.92
2018-09-12T03:56:20.219Z,101403.27
2018-09-12T03:58:49.082Z,101404.23
2018-09-12T04:01:17.875Z,101410.53
2018-09-12T04:03:46.740Z,101409.78
2018-09-12T04:06:15.572Z,101418.53
2018-09-12T04:08:44.392Z,101417.80
2018-09-12T04:11:13.266Z,101418.33
2018-09-12T04:13:42.217Z,101413.00
2018-09-12T04:16:11.093Z,101410.72
2018-09-12T04:18:39.971Z,101413.16
2018-09-12T04:21:08.786Z,101427.59
2018-09-12T04:23:37.637Z,101429.33
2018-09-12T04:26:06.475Z,101436.74
2018-09-12T04:28:35.392Z,101431.25
2018-09-12T04:31:04.222Z,101424.77
2018-09-12T04:33:33.064Z,101426.95
2018-09-12T04:36:01.904Z,101426.78
2018-09-12T04:38:30.751Z,101430.21
2018-09-12T04:40:59.599Z,101425.76
2018-09-12T04:43:28.447Z,101424.39
2018-09-12T04:45:57.287Z,101420.61
2018-09-12T04:48:26.271Z,101420.25
2018-09-12T04:50:55.313Z,101422.65
2018-09-12T04:53:24.208Z,101419.39
2018-09-12T04:55:53.046Z,101420.09
2018-09-12T04:58:21.882Z,101417.16
2018-09-12T05:00:50.734Z,101423.30
2018-09-12T05:03:19.595Z,101418.70
2018-09-12T05:05:48.406Z,101424.36
2018-09-12T05:08:17.252Z,101421.45
2018-09-12T05:10:46.078Z,101417.68
2018-09-12T05:13:14.925Z,101414.08
2018-09-12T05:15:43.764Z,101413.56
2018-09-12T05:18:12.632Z,101418.50
2018-09-12T05:20:41.465Z,101415.56
2018-09-12T05:23:10.330Z,101409.27
2018-09-12T05:25:39.176Z,101411.31
2018-09-12T05:28:08.020Z,101406.50
2018-09-12T05:30:36.854Z,101406.98
2018-09-12T05:33:05.725Z,101415.59
2018-09-12T05:35:34.589Z,101418.88
2018-09-12T05:38:03.424Z,101419.56
2018-09-12T05:40:32.379Z,101418.97
2018-09-12T05:43:01.273Z,101418.69
2018-09-12T05:45:30.098Z,101422.97
2018-09-12T05:47:58.933Z,101425.40
2018-09-12T05:50:27.779Z,101426.48
2018-09-12T05:52:56.622Z,101431.30
2018-09-12T05:55:25.448Z,101427.41
2018-09-12T05:57:55.253Z,101435.09
2018-09-12T06:00:24.115Z,101435.13
2018-09-12T06:02:52.962Z,101428.73
2018-09-12T06:05:21.890Z,101427.31
2018-09-12T06:07:50.700Z,101433.19
2018-09-12T06:10:19.607Z,101425.75
2018-09-12T06:12:48.474Z,101427.63
2018-09-12T06:15:17.345Z,101420.78
2018-09-12T06:17:46.181Z,101419.90
2018-09-12T06:20:15.026Z,101414.94
2018-09-12T06:22:43.841Z,101412.94
2018-09-12T06:25:12.677Z,101417.49
2018-09-12T06:27:41.563Z,101411.69
2018-09-12T06:30:10.396Z,101415.33
2018-09-12T06:32:39.224Z,101416.04
2018-09-12T06:35:08.060Z,101412.30
2018-09-12T06:37:36.889Z,101416.89
2018-09-12T06:40:05.753Z,101418.45
2018-09-12T06:42:34.619Z,101419.40
2018-09-12T06:45:03.457Z,101422.05
2018-09-12T06:47:32.314Z,101418.43
2018-09-12T06:50:01.209Z,101419.47
2018-09-12T06:52:30.040Z,101424.58
2018-09-12T06:54:58.910Z,101419.98
2018-09-12T06:57:27.794Z,101424.45
2018-09-12T06:59:56.659Z,101422.82
2018-09-12T07:02:25.489Z,101421.55
2018-09-12T07:04:54.333Z,101422.41
2018-09-12T07:07:26.472Z,101424.97
2018-09-12T07:09:55.675Z,101425.58
2018-09-12T07:12:24.827Z,101427.60
2018-09-12T07:14:53.722Z,101419.34
2018-09-12T07:17:22.908Z,101424.12
2018-09-12T07:19:52.566Z,101423.45
2018-09-12T07:22:24.146Z,101429.96
2018-09-12T07:24:53.563Z,101421.58
2018-09-12T07:27:22.656Z,101433.27
2018-09-12T07:29:51.818Z,101428.46
2018-09-12T07:32:20.843Z,101435.03
2018-09-12T07:34:52.667Z,101428.83
2018-09-12T07:37:21.649Z,101450.58
2018-09-12T07:39:50.713Z,101436.32
2018-09-12T07:42:19.785Z,101450.39
2018-09-12T07:44:51.866Z,101447.20
2018-09-12T07:47:24.228Z,101453.89
2018-09-12T07:49:53.677Z,101463.91
2018-09-12T07:52:22.794Z,101477.75
2018-09-12T07:54:51.680Z,101489.38
2018-09-12T07:57:20.519Z,101484.52
2018-09-12T07:59:49.335Z,101498.77
2018-09-12T08:02:18.176Z,101496.91
2018-09-12T08:04:46.990Z,101506.31
2018-09-12T08:07:15.875Z,101513.13
2018-09-12T08:09:44.698Z,101511.02
2018-09-12T08:12:13.658Z,101516.30
2018-09-12T08:14:42.380Z,101520.83
2018-09-12T08:17:11.229Z,101537.15
2018-09-12T08:19:40.109Z,101535.59
2018-09-12T08:22:08.955Z,101539.89
2018-09-12T08:24:37.823Z,101541.43
2018-09-12T08:27:06.669Z,101544.52
2018-09-12T08:29:35.501Z,101552.67
2018-09-12T08:32:04.335Z,101558.45
2018-09-12T08:34:33.182Z,101566.52
2018-09-12T08:37:02.055Z,101578.25
2018-09-12T08:39:30.876Z,101591.30
2018-09-12T08:41:59.788Z,101588.94
2018-09-12T08:44:28.637Z,101606.82
2018-09-12T08:46:57.445Z,101615.14
2018-09-12T08:49:26.278Z,101623.89
2018-09-12T08:51:55.144Z,101626.26
2018-09-12T08:54:23.976Z,101622.28
2018-09-12T08:56:52.997Z,101631.03
2018-09-12T08:59:21.706Z,101630.34
2018-09-12T09:01:50.538Z,101638.03
2018-09-12T09:04:19.419Z,101647.09
2018-09-12T09:06:48.249Z,101634.95
2018-09-12T09:09:17.077Z,101647.77
2018-09-12T09:11:45.943Z,101647.27
2018-09-12T09:14:14.778Z,101649.68
2018-09-12T09:16:43.623Z,101646.09
2018-09-12T09:19:12.536Z,101647.83
2018-09-12T09:21:41.412Z,101646.97
2018-09-12T09:24:10.192Z,101653.16
2018-09-12T09:26:39.040Z,101661.73
2018-09-12T09:29:07.897Z,101654.52
2018-09-12T09:31:36.743Z,101657.64
2018-09-12T09:34:05.651Z,101659.53
2018-09-12T09:36:34.486Z,101658.51
2018-09-12T09:39:03.594Z,101662.80
2018-09-12T09:41:32.423Z,101665.35
2018-09-12T09:44:01.267Z,101666.27
2018-09-12T09:46:30.096Z,101670.73
2018-09-12T09:48:58.910Z,101665.23
2018-09-12T09:51:27.759Z,101664.56
2018-09-12T09:53:56.563Z,101667.81
2018-09-12T09:56:25.430Z,101680.15
2018-09-12T09:58:54.252Z,101678.80
2018-09-12T10:01:40.827Z,101677.75
2018-09-12T10:04:22.602Z,101674.97
2018-09-12T10:07:19.714Z,101674.13
2018-09-12T10:09:48.494Z,101677.70
2018-09-12T10:12:17.376Z,101684.39
2018-09-12T10:14:46.343Z,101678.02
2018-09-12T10:17:15.138Z,101680.09
2018-09-12T10:19:43.982Z,101679.05
2018-09-12T10:22:12.853Z,101688.47
2018-09-12T10:24:41.698Z,101685.41
2018-09-12T10:27:10.533Z,101679.62
2018-09-12T10:29:39.390Z,101674.78
2018-09-12T10:32:08.203Z,101694.50
2018-09-12T10:34:39.794Z,101690.13
2018-09-12T10:37:08.651Z,101700.49
2018-09-12T10:39:37.470Z,101696.04
2018-09-12T10:42:06.312Z,101688.77
2018-09-12T10:44:35.177Z,101701.47
2018-09-12T10:47:04.093Z,101704.95
2018-09-12T10:49:32.999Z,101712.78
2018-09-12T10:52:02.236Z,101700.93
2018-09-12T10:54:31.613Z,101707.67
2018-09-12T10:57:00.531Z,101709.22
2018-09-12T10:59:29.378Z,101708.08
2018-09-12T11:01:58.244Z,101709.30
2018-09-12T11:04:27.189Z,101708.77
2018-09-12T11:06:55.886Z,101711.37
2018-09-12T11:09:24.735Z,101715.30
2018-09-12T11:11:53.607Z,101721.69
2018-09-12T11:14:22.428Z,101713.27
2018-09-12T11:16:51.271Z,101717.21
2018-09-12T11:19:20.106Z,101719.81
2018-09-12T11:21:48.969Z,101724.78
2018-09-12T11:24:17.772Z,101727.53
2018-09-12T11:26:46.596Z,101733.72
2018-09-12T11:29:15.450Z,101725.98
2018-09-12T11:31:44.269Z,101732.16
2018-09-12T11:34:13.144Z,101741.77
2018-09-12T11:36:41.934Z,101747.63
2018-09-12T11:39:11.864Z,101747.09
2018-09-12T11:41:40.808Z,101752.93
2018-09-12T11:44:09.613Z,101753.97
2018-09-12T11:46:38.488Z,101757.41
2018-09-12T11:49:07.311Z,101752.92
2018-09-12T11:51:36.120Z,101756.88
2018-09-12T11:54:04.995Z,101754.98
2018-09-12T11:56:33.847Z,101758.25
2018-09-12T11:59:02.677Z,101760.99
2018-09-12T12:01:31.477Z,101765.47
2018-09-12T12:04:00.322Z,101768.21
2018-09-12T12:06:29.189Z,101770.78
2018-09-12T12:08:58.035Z,101774.39
2018-09-12T12:11:26.876Z,101779.70
2018-09-12T12:13:55.715Z,101775.61
2018-09-12T12:16:24.594Z,101781.59
2018-09-12T12:18:53.408Z,101784.00
2018-09-12T12:21:22.262Z,101784.00
2018-09-12T12:23:51.107Z,101789.17
2018-09-12T12:26:19.951Z,101781.77
2018-09-12T12:28:48.835Z,101780.56
2018-09-12T12:31:17.676Z,101786.43
2018-09-12T12:33:46.527Z,101784.19
2018-09-12T12:36:15.446Z,101785.38
2018-09-12T12:38:44.308Z,101788.66
2018-09-12T12:41:13.180Z,101785.73
2018-09-12T12:43:41.994Z,101788.48
2018-09-12T12:46:11.115Z,101790.38
2018-09-12T12:48:39.946Z,101796.72
2018-09-12T12:51:08.769Z,101800.67
2018-09-12T12:53:37.712Z,101801.19
2018-09-12T12:56:06.588Z,101798.94
2018-09-12T12:58:35.427Z,101793.28
2018-09-12T13:01:04.278Z,101797.73
2018-09-12T13:03:33.088Z,101803.43
2018-09-12T13:06:04.512Z,101798.24
2018-09-12T13:08:33.625Z,101807.20
2018-09-12T13:11:02.676Z,101816.09
2018-09-12T13:13:32.791Z,101813.50
2018-09-12T13:16:04.630Z,101819.63
2018-09-12T13:18:34.213Z,101819.17
2018-09-12T13:21:03.380Z,101817.42
2018-09-12T13:23:35.194Z,101821.89
2018-09-12T13:26:04.364Z,101820.52
2018-09-12T13:28:38.804Z,101809.57
2018-09-12T13:31:08.050Z,101816.05
2018-09-12T13:33:37.285Z,101818.45
2018-09-12T13:36:08.418Z,101822.75
2018-09-12T13:38:36.210Z,101817.88
2018-09-12T13:41:05.290Z,101816.78
2018-09-12T13:43:38.691Z,101812.98
2018-09-12T13:46:07.850Z,101819.05
2018-09-12T13:48:36.979Z,101819.33
2018-09-12T13:51:06.131Z,101815.92
2018-09-12T13:53:35.451Z,101817.17
2018-09-12T13:56:07.161Z,101819.05
2018-09-12T13:58:36.144Z,101817.94
2018-09-12T14:01:05.263Z,101815.91
2018-09-12T14:03:35.447Z,101816.51
2018-09-12T14:06:04.556Z,101814.69
2018-09-12T14:08:33.710Z,101815.04
2018-09-12T14:11:03.680Z,101812.34
2018-09-12T14:13:32.704Z,101808.55
2018-09-12T14:16:01.872Z,101812.33
2018-09-12T14:18:31.018Z,101803.75
2018-09-12T14:21:00.046Z,101811.81
2018-09-12T14:23:29.170Z,101806.16
2018-09-12T14:26:00.943Z,101811.16
2018-09-12T14:28:32.476Z,101812.17
2018-09-12T14:31:01.590Z,101814.92
2018-09-12T14:33:30.528Z,101813.02
2018-09-12T14:35:59.676Z,101813.55
2018-09-12T14:38:28.632Z,101810.95
2018-09-12T14:40:57.682Z,101798.44
2018-09-12T14:43:26.860Z,101804.61
2018-09-12T14:45:55.882Z,101799.63
2018-09-12T14:48:24.940Z,101797.55
2018-09-12T14:50:54.248Z,101800.66
2018-09-12T14:53:23.379Z,101808.03
2018-09-12T14:55:55.220Z,101809.06
2018-09-12T14:58:24.270Z,101805.45
2018-09-12T15:00:54.075Z,101803.40
2018-09-12T15:03:23.763Z,101802.52
2018-09-12T15:05:52.893Z,101803.56
2018-09-12T15:08:22.017Z,101802.01
2018-09-12T15:10:51.105Z,101803.05
2018-09-12T15:13:19.952Z,101810.25
2018-09-12T15:15:48.802Z,101810.95
2018-09-12T15:18:17.636Z,101805.27
2018-09-12T15:20:46.482Z,101808.67
2018-09-12T15:23:15.300Z,101815.55
2018-09-12T15:25:44.128Z,101818.91
2018-09-12T15:28:12.932Z,101821.11
2018-09-12T15:30:41.780Z,101825.68
2018-09-12T15:33:10.595Z,101824.45
2018-09-12T15:35:39.477Z,101826.64
2018-09-12T15:38:08.297Z,101824.25
2018-09-12T15:40:37.112Z,101819.11
2018-09-12T15:43:06.065Z,101818.92
2018-09-12T15:45:34.907Z,101812.58
2018-09-12T15:48:03.721Z,101806.55
2018-09-12T15:50:32.553Z,101799.34
2018-09-12T15:53:01.605Z,101795.04
2018-09-12T15:55:30.474Z,101796.09
2018-09-12T15:57:59.390Z,101808.94
2018-09-12T16:00:28.135Z,101813.22
2018-09-12T16:02:56.972Z,101814.11
2018-09-12T16:05:25.792Z,101817.02
2018-09-12T16:07:54.633Z,101821.80
2018-09-12T16:10:23.480Z,101815.95
2018-09-12T16:12:52.319Z,101811.33
2018-09-12T16:15:21.200Z,101812.90
2018-09-12T16:17:49.990Z,101808.55
2018-09-12T16:20:18.818Z,101814.81
2018-09-12T16:22:47.672Z,101815.32
2018-09-12T16:25:16.533Z,101815.19
2018-09-12T16:27:45.364Z,101815.27
2018-09-12T16:30:14.188Z,101824.63
2018-09-12T16:32:43.209Z,101818.36
2018-09-12T16:35:11.849Z,101818.38
2018-09-12T16:37:40.662Z,101815.09
2018-09-12T16:40:09.538Z,101798.95
2018-09-12T16:42:38.322Z,101801.34
2018-09-12T16:45:07.140Z,101807.34
2018-09-12T16:47:35.988Z,101805.74
2018-09-12T16:50:05.272Z,101809.15
2018-09-12T16:52:34.147Z,101819.56
2018-09-12T16:55:02.972Z,101827.04
2018-09-12T16:57:31.819Z,101823.27
2018-09-12T17:00:00.666Z,101824.39
2018-09-12T17:02:29.601Z,101832.44
2018-09-12T17:04:58.426Z,101838.87
2018-09-12T17:07:27.302Z,101835.52
2018-09-12T17:09:56.150Z,101821.64
2018-09-12T17:12:24.992Z,101835.67
2018-09-12T17:14:53.819Z,101836.56
2018-09-12T17:17:22.673Z,101837.17
2018-09-12T17:19:51.488Z,101828.42
2018-09-12T17:22:20.321Z,101821.17
2018-09-12T17:24:49.140Z,101831.06
2018-09-12T17:27:18.000Z,101836.89
2018-09-12T17:29:46.844Z,101819.95
2018-09-12T17:32:15.722Z,101820.67
2018-09-12T17:34:44.520Z,101819.60
2018-09-12T17:37:13.393Z,101819.53
2018-09-12T17:39:42.220Z,101833.70
2018-09-12T17:42:11.041Z,101836.89
2018-09-12T17:44:39.891Z,101843.88
2018-09-12T17:47:08.693Z,101847.18
2018-09-12T17:49:37.571Z,101845.97
2018-09-12T17:52:06.569Z,101843.37
2018-09-12T17:54:35.456Z,101845.23
2018-09-12T17:57:04.321Z,101842.48
2018-09-12T17:59:33.174Z,101848.62
2018-09-12T18:02:01.999Z,101844.88
2018-09-12T18:04:30.866Z,101841.62
2018-09-12T18:06:59.664Z,101827.66
2018-09-12T18:09:28.605Z,101842.36
2018-09-12T18:11:57.426Z,101848.50
2018-09-12T18:14:26.255Z,101839.19
2018-09-12T18:16:55.082Z,101840.70
2018-09-12T18:19:24.023Z,101839.84
2018-09-12T18:21:52.871Z,101843.59
2018-09-12T18:24:21.746Z,101847.99
2018-09-12T18:26:50.516Z,101852.38
2018-09-12T18:29:19.705Z,101859.20
2018-09-12T18:31:48.574Z,101856.68
2018-09-12T18:34:17.416Z,101860.52
2018-09-12T18:36:46.263Z,101880.53
2018-09-12T18:39:15.101Z,101886.57
2018-09-12T18:41:43.955Z,101874.17
2018-09-12T18:44:12.790Z,101872.66
2018-09-12T18:46:41.605Z,101858.23
2018-09-12T18:49:10.420Z,101861.97
2018-09-12T18:51:39.242Z,101867.15
2018-09-12T18:54:08.242Z,101871.02
2018-09-12T18:56:36.951Z,101868.58
2018-09-12T18:59:05.812Z,101861.06
2018-09-12T19:01:34.643Z,101865.84
2018-09-12T19:04:03.533Z,101861.56
2018-09-12T19:06:32.421Z,101876.75
2018-09-12T19:09:01.201Z,101883.86
2018-09-12T19:11:30.037Z,101888.22
2018-09-12T19:13:58.881Z,101894.63
2018-09-12T19:16:27.701Z,101878.19
2018-09-12T19:18:56.556Z,101875.31
2018-09-12T19:21:25.486Z,101881.79
2018-09-12T19:23:54.337Z,101888.70
2018-09-12T19:26:23.301Z,101881.69
2018-09-12T19:28:52.109Z,101876.72
2018-09-12T19:31:20.949Z,101878.77
2018-09-12T19:33:49.832Z,101870.56
2018-09-12T19:36:18.679Z,101869.38
2018-09-12T19:38:47.469Z,101864.70
2018-09-12T19:41:16.320Z,101876.80
2018-09-12T19:43:45.203Z,101892.38
2018-09-12T19:46:14.023Z,101887.92
2018-09-12T19:48:42.906Z,101890.30
2018-09-12T19:51:14.985Z,101883.67
2018-09-12T19:53:44.165Z,101887.56
2018-09-12T19:56:13.890Z,101887.52
2018-09-12T19:58:43.616Z,101877.34
2018-09-12T20:01:12.456Z,101882.08
2018-09-12T20:03:41.273Z,101889.98
2018-09-12T20:06:10.077Z,101890.31
2018-09-12T20:08:38.916Z,101894.33
2018-09-12T20:11:07.773Z,101888.80
2018-09-12T20:13:36.632Z,101896.13
2018-09-12T20:16:05.497Z,101895.05
2018-09-12T20:18:34.302Z,101886.95
2018-09-12T20:21:03.171Z,101881.17
2018-09-12T20:23:32.140Z,101883.14
2018-09-12T20:26:00.899Z,101887.78
2018-09-12T20:28:31.591Z,101883.00
2018-09-12T20:31:00.426Z,101880.91
2018-09-12T20:33:29.255Z,101883.42
2018-09-12T20:35:58.099Z,101888.84
2018-09-12T20:38:26.972Z,101889.17
2018-09-12T20:40:55.808Z,101880.83
2018-09-12T20:43:24.671Z,101877.45
2018-09-12T20:45:53.497Z,101885.73
2018-09-12T20:48:22.397Z,101887.88
2018-09-12T20:50:51.225Z,101890.40
2018-09-12T20:53:20.073Z,101896.19
2018-09-12T20:55:48.997Z,101901.52
2018-09-12T20:58:17.867Z,101903.75
2018-09-12T21:00:46.738Z,101895.41
2018-09-12T21:03:15.571Z,101902.41
2018-09-12T21:05:44.439Z,101900.80
2018-09-12T21:08:13.309Z,101898.28
2018-09-12T21:10:42.227Z,101889.52
2018-09-12T21:13:11.005Z,101887.27
2018-09-12T21:15:39.875Z,101871.75
2018-09-12T21:18:08.770Z,101874.97
2018-09-12T21:20:37.536Z,101885.72
2018-09-12T21:23:06.518Z,101891.29
2018-09-12T21:25:35.379Z,101886.86
2018-09-12T21:28:04.365Z,101888.09
2018-09-12T21:30:33.232Z,101887.02
2018-09-12T21:33:02.097Z,101891.77
2018-09-12T21:35:30.971Z,101883.44
2018-09-12T21:37:59.787Z,101880.70
2018-09-12T21:40:28.635Z,101883.08
2018-09-12T21:42:57.480Z,101872.11
2018-09-12T21:45:26.348Z,101882.09
2018-09-12T21:47:55.282Z,101873.77
2018-09-12T21:50:24.131Z,101879.92
2018-09-12T21:52:52.994Z,101894.15
2018-09-12T21:55:21.845Z,101899.62
2018-09-12T21:57:50.721Z,101907.81
2018-09-12T22:00:19.534Z,101897.89
2018-09-12T22:02:48.416Z,101881.59
2018-09-12T22:05:17.253Z,101890.02
2018-09-12T22:07:46.075Z,101890.03
2018-09-12T22:10:14.918Z,101892.38
2018-09-12T22:12:43.748Z,101892.10
2018-09-12T22:15:12.567Z,101888.28
2018-09-12T22:17:41.430Z,101888.28
2018-09-12T22:20:10.285Z,101885.66
2018-09-12T22:22:39.126Z,101893.94
2018-09-12T22:25:07.937Z,101902.83
2018-09-12T22:27:36.756Z,101886.66
2018-09-12T22:30:07.230Z,101883.80
2018-09-12T22:32:36.067Z,101884.19
2018-09-12T22:35:04.993Z,101892.98
2018-09-12T22:37:33.835Z,101891.13
2018-09-12T22:40:02.696Z,101888.17
2018-09-12T22:42:31.520Z,101889.39
2018-09-12T22:45:00.376Z,101880.62
2018-09-12T22:47:29.215Z,101874.52
2018-09-12T22:49:58.061Z,101878.84
2018-09-12T22:52:26.944Z,101877.34
2018-09-12T22:54:55.839Z,101878.48
2018-09-12T22:57:24.708Z,101867.48
2018-09-12T22:59:53.543Z,101870.03
2018-09-12T23:02:22.408Z,101864.77
2018-09-12T23:04:51.250Z,101871.15
2018-09-12T23:07:20.090Z,101862.60
2018-09-12T23:09:48.937Z,101866.97
2018-09-12T23:12:17.786Z,101869.70
2018-09-12T23:14:46.634Z,101866.78
2018-09-12T23:17:15.482Z,101868.34
2018-09-12T23:19:44.335Z,101857.42
2018-09-12T23:22:13.165Z,101862.19
2018-09-12T23:24:42.009Z,101855.28
2018-09-12T23:27:10.824Z,101852.82
2018-09-12T23:29:39.681Z,101847.86
2018-09-12T23:32:08.508Z,101850.91
2018-09-12T23:34:37.360Z,101849.81
2018-09-12T23:37:06.204Z,101848.23
2018-09-12T23:39:35.048Z,101852.81
2018-09-12T23:42:03.868Z,101852.17
2018-09-12T23:44:32.723Z,101847.23
2018-09-12T23:47:01.538Z,101846.58
2018-09-12T23:49:30.412Z,101847.98
2018-09-12T23:51:59.253Z,101840.79
2018-09-12T23:54:28.098Z,101848.28
2018-09-12T23:56:56.964Z,101844.19
2018-09-12T23:59:25.778Z,101846.19
